sensor_id;sensor_type;location;lat;lon;timestamp;P1;durP1;ratioP1;P2;durP2;ratioP2
72949;SDS011;64868;45.710;9.590;2024-03-17T00:09:19;24.60;;;12.63;;
72949;SDS011;64868;45.710;9.590;2024-03-17T00:15:07;21.13;;;11.55;;
72949;SDS011;64868;45.710;9.590;2024-03-17T00:23:57;17.25;;;8.40;;
72949;SDS011;64868;45.710;9.590;2024-03-17T00:32:48;15.52;;;9.05;;
72949;SDS011;64868;45.710;9.590;2024-03-17T00:38:16;15.93;;;8.65;;
72949;SDS011;64868;45.710;9.590;2024-03-17T00:40:50;14.63;;;8.48;;
72949;SDS011;64868;45.710;9.590;2024-03-17T00:43:22;15.93;;;8.45;;
72949;SDS011;64868;45.710;9.590;2024-03-17T00:51:26;16.83;;;8.18;;
72949;SDS011;64868;45.710;9.590;2024-03-17T00:59:59;14.60;;;7.18;;
72949;SDS011;64868;45.710;9.590;2024-03-17T01:05:46;11.23;;;6.45;;
72949;SDS011;64868;45.710;9.590;2024-03-17T01:08:19;13.68;;;6.63;;
72949;SDS011;64868;45.710;9.590;2024-03-17T01:13:46;15.40;;;5.53;;
72949;SDS011;64868;45.710;9.590;2024-03-17T01:16:18;11.52;;;5.30;;
72949;SDS011;64868;45.710;9.590;2024-03-17T01:18:57;11.70;;;5.53;;
72949;SDS011;64868;45.710;9.590;2024-03-17T01:39:34;9.13;;;4.60;;
72949;SDS011;64868;45.710;9.590;2024-03-17T01:59:34;6.97;;;3.25;;
72949;SDS011;64868;45.710;9.590;2024-03-17T02:12:10;8.18;;;3.63;;
72949;SDS011;64868;45.710;9.590;2024-03-17T02:14:37;8.25;;;3.47;;
72949;SDS011;64868;45.710;9.590;2024-03-17T02:22:59;6.65;;;2.80;;
72949;SDS011;64868;45.710;9.590;2024-03-17T02:31:56;6.05;;;3.00;;
72949;SDS011;64868;45.710;9.590;2024-03-17T02:34:23;7.82;;;2.88;;
72949;SDS011;64868;45.710;9.590;2024-03-17T02:39:49;7.22;;;2.67;;
72949;SDS011;64868;45.710;9.590;2024-03-17T02:42:27;6.32;;;2.40;;
72949;SDS011;64868;45.710;9.590;2024-03-17T02:53:45;7.05;;;2.42;;
72949;SDS011;64868;45.710;9.590;2024-03-17T02:56:27;7.00;;;2.78;;
72949;SDS011;64868;45.710;9.590;2024-03-17T02:58:54;6.43;;;2.90;;
72949;SDS011;64868;45.710;9.590;2024-03-17T03:01:20;5.93;;;2.40;;
72949;SDS011;64868;45.710;9.590;2024-03-17T03:06:59;5.68;;;2.42;;
72949;SDS011;64868;45.710;9.590;2024-03-17T03:09:31;6.13;;;2.20;;
72949;SDS011;64868;45.710;9.590;2024-03-17T03:15:18;5.78;;;2.25;;
72949;SDS011;64868;45.710;9.590;2024-03-17T03:20:37;6.30;;;2.53;;
72949;SDS011;64868;45.710;9.590;2024-03-17T03:23:10;5.82;;;2.42;;
72949;SDS011;64868;45.710;9.590;2024-03-17T03:28:53;6.72;;;2.42;;
72949;SDS011;64868;45.710;9.590;2024-03-17T03:49:51;8.43;;;2.50;;
72949;SDS011;64868;45.710;9.590;2024-03-17T03:55:38;5.93;;;2.28;;
72949;SDS011;64868;45.710;9.590;2024-03-17T03:58:17;6.82;;;2.35;;
72949;SDS011;64868;45.710;9.590;2024-03-17T04:00:43;6.50;;;2.45;;
72949;SDS011;64868;45.710;9.590;2024-03-17T04:06:32;6.63;;;2.20;;
72949;SDS011;64868;45.710;9.590;2024-03-17T04:12:19;6.80;;;2.15;;
72949;SDS011;64868;45.710;9.590;2024-03-17T04:18:06;5.68;;;1.83;;
72949;SDS011;64868;45.710;9.590;2024-03-17T04:20:46;5.50;;;1.80;;
72949;SDS011;64868;45.710;9.590;2024-03-17T04:23:14;5.05;;;1.67;;
72949;SDS011;64868;45.710;9.590;2024-03-17T04:25:46;6.82;;;2.00;;
72949;SDS011;64868;45.710;9.590;2024-03-17T04:31:32;6.47;;;1.60;;
72949;SDS011;64868;45.710;9.590;2024-03-17T04:37:15;5.93;;;1.60;;
72949;SDS011;64868;45.710;9.590;2024-03-17T04:39:44;4.40;;;1.70;;
72949;SDS011;64868;45.710;9.590;2024-03-17T04:47:42;6.50;;;1.88;;
72949;SDS011;64868;45.710;9.590;2024-03-17T04:50:15;10.73;;;3.97;;
72949;SDS011;64868;45.710;9.590;2024-03-17T04:52:47;7.22;;;1.80;;
72949;SDS011;64868;45.710;9.590;2024-03-17T04:55:16;6.15;;;2.00;;
72949;SDS011;64868;45.710;9.590;2024-03-17T04:57:45;5.78;;;1.77;;
72949;SDS011;64868;45.710;9.590;2024-03-17T05:00:13;9.70;;;1.80;;
72949;SDS011;64868;45.710;9.590;2024-03-17T05:02:52;4.80;;;1.63;;
72949;SDS011;64868;45.710;9.590;2024-03-17T05:05:20;4.53;;;1.45;;
72949;SDS011;64868;45.710;9.590;2024-03-17T05:07:45;4.95;;;1.65;;
72949;SDS011;64868;45.710;9.590;2024-03-17T05:10:12;6.78;;;1.85;;
72949;SDS011;64868;45.710;9.590;2024-03-17T05:12:38;8.30;;;1.80;;
72949;SDS011;64868;45.710;9.590;2024-03-17T05:15:14;4.70;;;1.63;;
72949;SDS011;64868;45.710;9.590;2024-03-17T05:17:46;6.55;;;1.90;;
72949;SDS011;64868;45.710;9.590;2024-03-17T05:20:19;4.95;;;1.60;;
72949;SDS011;64868;45.710;9.590;2024-03-17T05:29:08;5.10;;;1.40;;
72949;SDS011;64868;45.710;9.590;2024-03-17T05:37:46;7.00;;;1.60;;
72949;SDS011;64868;45.710;9.590;2024-03-17T05:43:03;4.53;;;1.30;;
72949;SDS011;64868;45.710;9.590;2024-03-17T05:45:42;4.63;;;1.38;;
72949;SDS011;64868;45.710;9.590;2024-03-17T05:48:10;6.82;;;1.70;;
72949;SDS011;64868;45.710;9.590;2024-03-17T05:50:43;5.22;;;1.30;;
72949;SDS011;64868;45.710;9.590;2024-03-17T05:53:17;7.13;;;1.50;;
72949;SDS011;64868;45.710;9.590;2024-03-17T05:58:30;4.80;;;1.70;;
72949;SDS011;64868;45.710;9.590;2024-03-17T06:01:08;7.85;;;2.42;;
72949;SDS011;64868;45.710;9.590;2024-03-17T06:03:47;6.28;;;2.00;;
72949;SDS011;64868;45.710;9.590;2024-03-17T06:06:14;7.82;;;2.60;;
72949;SDS011;64868;45.710;9.590;2024-03-17T06:08:49;7.30;;;2.40;;
72949;SDS011;64868;45.710;9.590;2024-03-17T06:11:16;6.38;;;2.28;;
72949;SDS011;64868;45.710;9.590;2024-03-17T06:13:42;7.05;;;2.22;;
72949;SDS011;64868;45.710;9.590;2024-03-17T06:16:09;4.90;;;1.80;;
72949;SDS011;64868;45.710;9.590;2024-03-17T06:18:41;8.05;;;2.33;;
72949;SDS011;64868;45.710;9.590;2024-03-17T06:21:08;7.85;;;2.08;;
72949;SDS011;64868;45.710;9.590;2024-03-17T06:23:35;6.03;;;2.10;;
72949;SDS011;64868;45.710;9.590;2024-03-17T06:29:22;5.15;;;1.90;;
72949;SDS011;64868;45.710;9.590;2024-03-17T06:31:49;6.65;;;1.95;;
72949;SDS011;64868;45.710;9.590;2024-03-17T06:34:15;5.45;;;2.08;;
72949;SDS011;64868;45.710;9.590;2024-03-17T06:36:43;5.78;;;2.03;;
72949;SDS011;64868;45.710;9.590;2024-03-17T06:39:08;6.55;;;2.13;;
72949;SDS011;64868;45.710;9.590;2024-03-17T06:41:34;6.25;;;2.20;;
72949;SDS011;64868;45.710;9.590;2024-03-17T06:44:10;6.88;;;2.40;;
72949;SDS011;64868;45.710;9.590;2024-03-17T06:49:47;5.47;;;2.22;;
72949;SDS011;64868;45.710;9.590;2024-03-17T06:52:31;6.22;;;2.50;;
72949;SDS011;64868;45.710;9.590;2024-03-17T06:54:59;6.70;;;2.47;;
72949;SDS011;64868;45.710;9.590;2024-03-17T06:57:26;7.72;;;2.30;;
72949;SDS011;64868;45.710;9.590;2024-03-17T07:05:26;5.75;;;2.05;;
72949;SDS011;64868;45.710;9.590;2024-03-17T07:07:56;6.50;;;2.42;;
72949;SDS011;64868;45.710;9.590;2024-03-17T07:10:34;6.47;;;2.55;;
72949;SDS011;64868;45.710;9.590;2024-03-17T07:13:00;6.82;;;1.92;;
72949;SDS011;64868;45.710;9.590;2024-03-17T07:15:31;9.50;;;3.05;;
72949;SDS011;64868;45.710;9.590;2024-03-17T07:20:58;7.60;;;2.58;;
72949;SDS011;64868;45.710;9.590;2024-03-17T07:23:27;8.48;;;2.83;;
72949;SDS011;64868;45.710;9.590;2024-03-17T07:25:57;8.52;;;3.25;;
72949;SDS011;64868;45.710;9.590;2024-03-17T07:28:25;7.72;;;3.30;;
72949;SDS011;64868;45.710;9.590;2024-03-17T07:30:52;8.90;;;2.55;;
72949;SDS011;64868;45.710;9.590;2024-03-17T07:33:19;7.43;;;2.92;;
72949;SDS011;64868;45.710;9.590;2024-03-17T07:35:55;8.68;;;2.90;;
72949;SDS011;64868;45.710;9.590;2024-03-17T07:38:31;7.60;;;2.58;;
72949;SDS011;64868;45.710;9.590;2024-03-17T07:41:04;6.45;;;2.63;;
72949;SDS011;64868;45.710;9.590;2024-03-17T07:43:36;7.28;;;2.70;;
72949;SDS011;64868;45.710;9.590;2024-03-17T07:46:13;5.88;;;2.25;;
72949;SDS011;64868;45.710;9.590;2024-03-17T07:51:17;6.70;;;2.17;;
72949;SDS011;64868;45.710;9.590;2024-03-17T07:53:44;6.13;;;2.25;;
72949;SDS011;64868;45.710;9.590;2024-03-17T07:56:18;5.78;;;2.30;;
72949;SDS011;64868;45.710;9.590;2024-03-17T08:01:16;7.05;;;2.25;;
72949;SDS011;64868;45.710;9.590;2024-03-17T08:03:56;5.97;;;2.00;;
72949;SDS011;64868;45.710;9.590;2024-03-17T08:13:06;8.50;;;2.45;;
72949;SDS011;64868;45.710;9.590;2024-03-17T08:15:55;7.78;;;2.75;;
72949;SDS011;64868;45.710;9.590;2024-03-17T08:21:44;7.95;;;3.05;;
72949;SDS011;64868;45.710;9.590;2024-03-17T08:24:18;7.88;;;3.08;;
72949;SDS011;64868;45.710;9.590;2024-03-17T08:26:46;8.23;;;3.60;;
72949;SDS011;64868;45.710;9.590;2024-03-17T08:29:13;9.25;;;3.55;;
72949;SDS011;64868;45.710;9.590;2024-03-17T08:31:39;7.28;;;3.00;;
72949;SDS011;64868;45.710;9.590;2024-03-17T08:34:05;7.22;;;3.17;;
72949;SDS011;64868;45.710;9.590;2024-03-17T08:36:44;9.60;;;3.55;;
72949;SDS011;64868;45.710;9.590;2024-03-17T08:39:18;7.20;;;3.17;;
72949;SDS011;64868;45.710;9.590;2024-03-17T08:44:48;9.13;;;4.10;;
72949;SDS011;64868;45.710;9.590;2024-03-17T08:47:24;8.43;;;4.68;;
72949;SDS011;64868;45.710;9.590;2024-03-17T08:49:54;10.32;;;5.38;;
72949;SDS011;64868;45.710;9.590;2024-03-17T08:52:22;12.77;;;6.82;;
72949;SDS011;64868;45.710;9.590;2024-03-17T08:54:54;14.65;;;6.00;;
72949;SDS011;64868;45.710;9.590;2024-03-17T08:57:20;13.57;;;7.85;;
72949;SDS011;64868;45.710;9.590;2024-03-17T09:05:45;17.90;;;10.80;;
72949;SDS011;64868;45.710;9.590;2024-03-17T09:08:16;18.25;;;9.80;;
72949;SDS011;64868;45.710;9.590;2024-03-17T09:11:06;18.50;;;12.30;;
72949;SDS011;64868;45.710;9.590;2024-03-17T09:13:37;14.80;;;10.13;;
72949;SDS011;64868;45.710;9.590;2024-03-17T09:16:18;17.52;;;11.50;;
72949;SDS011;64868;45.710;9.590;2024-03-17T09:18:46;17.45;;;12.20;;
72949;SDS011;64868;45.710;9.590;2024-03-17T09:21:12;17.33;;;11.20;;
72949;SDS011;64868;45.710;9.590;2024-03-17T09:23:40;17.65;;;11.68;;
72949;SDS011;64868;45.710;9.590;2024-03-17T09:26:06;16.80;;;11.10;;
72949;SDS011;64868;45.710;9.590;2024-03-17T09:31:49;17.42;;;10.05;;
72949;SDS011;64868;45.710;9.590;2024-03-17T09:34:16;15.15;;;9.77;;
72949;SDS011;64868;45.710;9.590;2024-03-17T09:36:45;18.95;;;12.15;;
72949;SDS011;64868;45.710;9.590;2024-03-17T09:39:15;17.67;;;12.65;;
72949;SDS011;64868;45.710;9.590;2024-03-17T09:41:43;19.63;;;11.55;;
72949;SDS011;64868;45.710;9.590;2024-03-17T09:44:12;19.73;;;13.77;;
72949;SDS011;64868;45.710;9.590;2024-03-17T09:46:43;21.35;;;13.32;;
72949;SDS011;64868;45.710;9.590;2024-03-17T09:49:16;14.18;;;10.25;;
72949;SDS011;64868;45.710;9.590;2024-03-17T09:51:43;19.90;;;12.75;;
72949;SDS011;64868;45.710;9.590;2024-03-17T09:54:20;19.77;;;11.88;;
72949;SDS011;64868;45.710;9.590;2024-03-17T09:56:52;18.63;;;12.80;;
72949;SDS011;64868;45.710;9.590;2024-03-17T09:59:18;18.83;;;12.40;;
72949;SDS011;64868;45.710;9.590;2024-03-17T10:04:54;17.40;;;12.48;;
72949;SDS011;64868;45.710;9.590;2024-03-17T10:07:27;19.08;;;12.18;;
72949;SDS011;64868;45.710;9.590;2024-03-17T10:10:20;17.23;;;12.05;;
72949;SDS011;64868;45.710;9.590;2024-03-17T10:12:53;16.52;;;11.82;;
72949;SDS011;64868;45.710;9.590;2024-03-17T10:15:20;20.23;;;11.73;;
72949;SDS011;64868;45.710;9.590;2024-03-17T10:17:47;20.90;;;13.57;;
72949;SDS011;64868;45.710;9.590;2024-03-17T10:23:07;20.77;;;11.48;;
72949;SDS011;64868;45.710;9.590;2024-03-17T10:25:38;15.95;;;11.68;;
72949;SDS011;64868;45.710;9.590;2024-03-17T10:28:11;17.70;;;11.35;;
72949;SDS011;64868;45.710;9.590;2024-03-17T10:30:38;17.67;;;12.23;;
72949;SDS011;64868;45.710;9.590;2024-03-17T10:33:05;22.23;;;12.90;;
72949;SDS011;64868;45.710;9.590;2024-03-17T10:35:34;23.38;;;13.90;;
72949;SDS011;64868;45.710;9.590;2024-03-17T10:38:05;17.85;;;12.70;;
72949;SDS011;64868;45.710;9.590;2024-03-17T10:40:32;20.23;;;12.30;;
72949;SDS011;64868;45.710;9.590;2024-03-17T10:43:01;22.17;;;13.77;;
72949;SDS011;64868;45.710;9.590;2024-03-17T10:45:43;20.63;;;12.88;;
72949;SDS011;64868;45.710;9.590;2024-03-17T10:48:09;20.67;;;13.05;;
72949;SDS011;64868;45.710;9.590;2024-03-17T10:50:43;20.27;;;13.43;;
72949;SDS011;64868;45.710;9.590;2024-03-17T10:53:13;21.83;;;13.23;;
72949;SDS011;64868;45.710;9.590;2024-03-17T10:56:03;17.75;;;11.90;;
72949;SDS011;64868;45.710;9.590;2024-03-17T11:01:15;21.30;;;12.90;;
72949;SDS011;64868;45.710;9.590;2024-03-17T11:03:46;21.42;;;13.75;;
72949;SDS011;64868;45.710;9.590;2024-03-17T11:06:15;22.05;;;13.32;;
72949;SDS011;64868;45.710;9.590;2024-03-17T11:08:42;21.63;;;13.18;;
72949;SDS011;64868;45.710;9.590;2024-03-17T11:11:11;21.73;;;14.43;;
72949;SDS011;64868;45.710;9.590;2024-03-17T11:13:39;21.35;;;13.85;;
72949;SDS011;64868;45.710;9.590;2024-03-17T11:16:05;21.77;;;14.32;;
72949;SDS011;64868;45.710;9.590;2024-03-17T11:18:52;22.95;;;13.88;;
72949;SDS011;64868;45.710;9.590;2024-03-17T11:21:18;19.50;;;13.13;;
72949;SDS011;64868;45.710;9.590;2024-03-17T11:23:55;22.13;;;13.30;;
72949;SDS011;64868;45.710;9.590;2024-03-17T11:26:30;26.25;;;15.95;;
72949;SDS011;64868;45.710;9.590;2024-03-17T11:28:57;21.73;;;12.75;;
72949;SDS011;64868;45.710;9.590;2024-03-17T12:08:30;22.75;;;14.27;;
72949;SDS011;64868;45.710;9.590;2024-03-17T12:14:21;19.80;;;12.57;;
72949;SDS011;64868;45.710;9.590;2024-03-17T12:20:34;22.80;;;16.20;;
72949;SDS011;64868;45.710;9.590;2024-03-17T12:22:55;22.33;;;15.30;;
72949;SDS011;64868;45.710;9.590;2024-03-17T12:25:33;22.90;;;13.10;;
72949;SDS011;64868;45.710;9.590;2024-03-17T12:27:59;24.45;;;14.15;;
72949;SDS011;64868;45.710;9.590;2024-03-17T12:30:32;24.27;;;15.65;;
72949;SDS011;64868;45.710;9.590;2024-03-17T12:32:59;23.95;;;13.88;;
72949;SDS011;64868;45.710;9.590;2024-03-17T12:35:25;22.42;;;15.50;;
72949;SDS011;64868;45.710;9.590;2024-03-17T12:54:13;18.50;;;12.52;;
72949;SDS011;64868;45.710;9.590;2024-03-17T12:56:46;18.85;;;12.13;;
72949;SDS011;64868;45.710;9.590;2024-03-17T12:59:44;19.25;;;12.32;;
72949;SDS011;64868;45.710;9.590;2024-03-17T13:08:40;16.20;;;10.57;;
72949;SDS011;64868;45.710;9.590;2024-03-17T13:14:30;17.40;;;11.88;;
72949;SDS011;64868;45.710;9.590;2024-03-17T13:16:56;16.40;;;11.38;;
72949;SDS011;64868;45.710;9.590;2024-03-17T13:19:28;16.42;;;10.38;;
72949;SDS011;64868;45.710;9.590;2024-03-17T13:22:12;18.83;;;11.38;;
72949;SDS011;64868;45.710;9.590;2024-03-17T13:24:39;21.30;;;11.18;;
72949;SDS011;64868;45.710;9.590;2024-03-17T13:27:06;18.60;;;12.65;;
72949;SDS011;64868;45.710;9.590;2024-03-17T13:32:20;18.58;;;11.07;;
72949;SDS011;64868;45.710;9.590;2024-03-17T13:34:47;15.40;;;10.55;;
72949;SDS011;64868;45.710;9.590;2024-03-17T13:43:44;17.00;;;10.43;;
72949;SDS011;64868;45.710;9.590;2024-03-17T13:49:31;20.38;;;13.93;;
72949;SDS011;64868;45.710;9.590;2024-03-17T13:55:30;22.15;;;13.10;;
72949;SDS011;64868;45.710;9.590;2024-03-17T13:58:08;20.88;;;13.60;;
72949;SDS011;64868;45.710;9.590;2024-03-17T14:00:34;22.13;;;14.27;;
72949;SDS011;64868;45.710;9.590;2024-03-17T14:05:41;23.42;;;14.25;;
72949;SDS011;64868;45.710;9.590;2024-03-17T14:08:09;22.20;;;15.02;;
72949;SDS011;64868;45.710;9.590;2024-03-17T14:10:53;26.33;;;15.77;;
72949;SDS011;64868;45.710;9.590;2024-03-17T14:13:30;20.70;;;14.55;;
72949;SDS011;64868;45.710;9.590;2024-03-17T14:16:06;21.88;;;13.88;;
72949;SDS011;64868;45.710;9.590;2024-03-17T14:21:05;19.92;;;13.40;;
72949;SDS011;64868;45.710;9.590;2024-03-17T14:23:31;21.15;;;13.98;;
72949;SDS011;64868;45.710;9.590;2024-03-17T14:26:04;20.63;;;14.13;;
72949;SDS011;64868;45.710;9.590;2024-03-17T14:28:44;19.17;;;12.95;;
72949;SDS011;64868;45.710;9.590;2024-03-17T14:31:31;21.38;;;13.25;;
72949;SDS011;64868;45.710;9.590;2024-03-17T14:40:33;21.23;;;12.98;;
72949;SDS011;64868;45.710;9.590;2024-03-17T14:43:01;22.00;;;13.20;;
72949;SDS011;64868;45.710;9.590;2024-03-17T14:48:08;20.15;;;12.82;;
72949;SDS011;64868;45.710;9.590;2024-03-17T14:53:44;19.48;;;13.32;;
72949;SDS011;64868;45.710;9.590;2024-03-17T14:56:22;20.95;;;14.05;;
72949;SDS011;64868;45.710;9.590;2024-03-17T14:58:52;19.52;;;12.57;;
72949;SDS011;64868;45.710;9.590;2024-03-17T15:04:40;20.30;;;12.00;;
72949;SDS011;64868;45.710;9.590;2024-03-17T15:13:49;22.38;;;13.48;;
72949;SDS011;64868;45.710;9.590;2024-03-17T15:19:13;23.10;;;14.13;;
72949;SDS011;64868;45.710;9.590;2024-03-17T15:25:12;25.27;;;13.77;;
72949;SDS011;64868;45.710;9.590;2024-03-17T15:30:28;17.88;;;11.45;;
72949;SDS011;64868;45.710;9.590;2024-03-17T15:36:16;20.30;;;14.63;;
72949;SDS011;64868;45.710;9.590;2024-03-17T15:38:43;18.55;;;14.07;;
72949;SDS011;64868;45.710;9.590;2024-03-17T15:41:10;20.20;;;14.38;;
72949;SDS011;64868;45.710;9.590;2024-03-17T15:43:53;19.80;;;14.35;;
72949;SDS011;64868;45.710;9.590;2024-03-17T15:46:22;21.08;;;14.27;;
72949;SDS011;64868;45.710;9.590;2024-03-17T15:48:49;19.75;;;12.60;;
72949;SDS011;64868;45.710;9.590;2024-03-17T15:51:15;23.60;;;15.32;;
72949;SDS011;64868;45.710;9.590;2024-03-17T16:02:36;22.35;;;14.65;;
72949;SDS011;64868;45.710;9.590;2024-03-17T16:05:06;21.58;;;14.52;;
72949;SDS011;64868;45.710;9.590;2024-03-17T16:10:38;21.08;;;14.18;;
72949;SDS011;64868;45.710;9.590;2024-03-17T16:13:08;20.95;;;14.07;;
72949;SDS011;64868;45.710;9.590;2024-03-17T16:15:47;23.38;;;13.85;;
72949;SDS011;64868;45.710;9.590;2024-03-17T16:21:26;21.45;;;13.45;;
72949;SDS011;64868;45.710;9.590;2024-03-17T16:26:54;18.48;;;12.70;;
72949;SDS011;64868;45.710;9.590;2024-03-17T16:29:21;19.23;;;14.13;;
72949;SDS011;64868;45.710;9.590;2024-03-17T16:34:33;21.00;;;13.68;;
72949;SDS011;64868;45.710;9.590;2024-03-17T16:37:02;23.45;;;16.02;;
72949;SDS011;64868;45.710;9.590;2024-03-17T16:39:40;24.73;;;14.55;;
72949;SDS011;64868;45.710;9.590;2024-03-17T16:42:16;24.30;;;15.85;;
72949;SDS011;64868;45.710;9.590;2024-03-17T16:45:03;22.23;;;15.07;;
72949;SDS011;64868;45.710;9.590;2024-03-17T16:47:39;21.38;;;14.65;;
72949;SDS011;64868;45.710;9.590;2024-03-17T16:50:05;24.63;;;15.70;;
72949;SDS011;64868;45.710;9.590;2024-03-17T16:52:35;17.98;;;12.82;;
72949;SDS011;64868;45.710;9.590;2024-03-17T16:55:07;20.65;;;14.52;;
72949;SDS011;64868;45.710;9.590;2024-03-17T16:57:41;22.80;;;14.00;;
72949;SDS011;64868;45.710;9.590;2024-03-17T17:00:12;24.23;;;15.77;;
72949;SDS011;64868;45.710;9.590;2024-03-17T17:02:43;18.77;;;11.88;;
72949;SDS011;64868;45.710;9.590;2024-03-17T17:05:11;21.83;;;13.88;;
72949;SDS011;64868;45.710;9.590;2024-03-17T17:10:25;21.33;;;15.82;;
72949;SDS011;64868;45.710;9.590;2024-03-17T17:12:51;25.25;;;17.63;;
72949;SDS011;64868;45.710;9.590;2024-03-17T17:21:21;25.05;;;16.90;;
72949;SDS011;64868;45.710;9.590;2024-03-17T17:23:56;25.50;;;16.65;;
72949;SDS011;64868;45.710;9.590;2024-03-17T17:26:30;26.60;;;16.80;;
72949;SDS011;64868;45.710;9.590;2024-03-17T17:28:58;25.42;;;16.27;;
72949;SDS011;64868;45.710;9.590;2024-03-17T17:31:28;23.27;;;15.48;;
72949;SDS011;64868;45.710;9.590;2024-03-17T17:33:57;26.42;;;16.75;;
72949;SDS011;64868;45.710;9.590;2024-03-17T17:36:25;26.05;;;18.20;;
72949;SDS011;64868;45.710;9.590;2024-03-17T17:38:54;27.67;;;17.98;;
72949;SDS011;64868;45.710;9.590;2024-03-17T17:41:21;27.15;;;15.27;;
72949;SDS011;64868;45.710;9.590;2024-03-17T17:43:55;29.48;;;17.98;;
72949;SDS011;64868;45.710;9.590;2024-03-17T17:46:21;25.20;;;17.08;;
72949;SDS011;64868;45.710;9.590;2024-03-17T17:55:28;25.73;;;14.48;;
72949;SDS011;64868;45.710;9.590;2024-03-17T17:57:56;26.15;;;16.05;;
72949;SDS011;64868;45.710;9.590;2024-03-17T18:00:28;27.20;;;17.55;;
72949;SDS011;64868;45.710;9.590;2024-03-17T18:02:54;29.38;;;19.05;;
72949;SDS011;64868;45.710;9.590;2024-03-17T18:05:21;28.52;;;16.45;;
72949;SDS011;64868;45.710;9.590;2024-03-17T18:07:48;26.27;;;16.15;;
72949;SDS011;64868;45.710;9.590;2024-03-17T18:10:13;21.95;;;15.57;;
72949;SDS011;64868;45.710;9.590;2024-03-17T18:12:40;25.17;;;15.80;;
72949;SDS011;64868;45.710;9.590;2024-03-17T18:15:24;24.50;;;14.68;;
72949;SDS011;64868;45.710;9.590;2024-03-17T18:18:02;19.75;;;12.82;;
72949;SDS011;64868;45.710;9.590;2024-03-17T18:20:28;20.23;;;13.63;;
72949;SDS011;64868;45.710;9.590;2024-03-17T18:23:04;25.73;;;14.43;;
72949;SDS011;64868;45.710;9.590;2024-03-17T18:25:34;21.75;;;13.85;;
72949;SDS011;64868;45.710;9.590;2024-03-17T18:28:04;27.95;;;17.25;;
72949;SDS011;64868;45.710;9.590;2024-03-17T18:30:31;24.52;;;16.00;;
72949;SDS011;64868;45.710;9.590;2024-03-17T18:32:58;23.85;;;16.05;;
72949;SDS011;64868;45.710;9.590;2024-03-17T18:35:32;26.10;;;16.88;;
72949;SDS011;64868;45.710;9.590;2024-03-17T18:38:01;25.42;;;15.73;;
72949;SDS011;64868;45.710;9.590;2024-03-17T18:43:07;31.52;;;20.33;;
72949;SDS011;64868;45.710;9.590;2024-03-17T18:51:41;31.52;;;19.55;;
72949;SDS011;64868;45.710;9.590;2024-03-17T18:57:31;29.63;;;20.02;;
72949;SDS011;64868;45.710;9.590;2024-03-17T19:00:03;31.50;;;19.42;;
72949;SDS011;64868;45.710;9.590;2024-03-17T19:02:31;34.25;;;21.80;;
72949;SDS011;64868;45.710;9.590;2024-03-17T19:04:59;29.83;;;19.58;;
72949;SDS011;64868;45.710;9.590;2024-03-17T19:07:25;31.65;;;20.08;;
72949;SDS011;64868;45.710;9.590;2024-03-17T19:09:55;36.38;;;21.15;;
72949;SDS011;64868;45.710;9.590;2024-03-17T19:12:24;38.33;;;24.05;;
72949;SDS011;64868;45.710;9.590;2024-03-17T19:14:50;32.17;;;20.75;;
72949;SDS011;64868;45.710;9.590;2024-03-17T19:19:55;32.20;;;22.00;;
72949;SDS011;64868;45.710;9.590;2024-03-17T19:22:21;29.23;;;20.80;;
72949;SDS011;64868;45.710;9.590;2024-03-17T19:24:53;32.85;;;21.55;;
72949;SDS011;64868;45.710;9.590;2024-03-17T19:35:55;37.45;;;24.80;;
72949;SDS011;64868;45.710;9.590;2024-03-17T19:44:42;37.08;;;23.13;;
72949;SDS011;64868;45.710;9.590;2024-03-17T19:47:09;31.60;;;23.10;;
72949;SDS011;64868;45.710;9.590;2024-03-17T19:49:40;35.15;;;24.02;;
72949;SDS011;64868;45.710;9.590;2024-03-17T19:54:59;35.75;;;22.67;;
72949;SDS011;64868;45.710;9.590;2024-03-17T19:57:24;38.20;;;22.98;;
72949;SDS011;64868;45.710;9.590;2024-03-17T19:59:56;34.10;;;22.75;;
72949;SDS011;64868;45.710;9.590;2024-03-17T20:02:23;37.03;;;23.92;;
72949;SDS011;64868;45.710;9.590;2024-03-17T20:04:50;39.10;;;24.83;;
72949;SDS011;64868;45.710;9.590;2024-03-17T20:07:31;37.58;;;23.52;;
72949;SDS011;64868;45.710;9.590;2024-03-17T20:09:57;35.08;;;22.10;;
72949;SDS011;64868;45.710;9.590;2024-03-17T20:12:23;37.30;;;23.83;;
72949;SDS011;64868;45.710;9.590;2024-03-17T20:18:03;32.20;;;21.65;;
72949;SDS011;64868;45.710;9.590;2024-03-17T20:20:40;35.00;;;23.27;;
72949;SDS011;64868;45.710;9.590;2024-03-17T20:23:14;34.35;;;21.92;;
72949;SDS011;64868;45.710;9.590;2024-03-17T20:25:41;31.50;;;21.52;;
72949;SDS011;64868;45.710;9.590;2024-03-17T20:28:13;36.10;;;23.10;;
72949;SDS011;64868;45.710;9.590;2024-03-17T20:30:55;33.30;;;21.63;;
72949;SDS011;64868;45.710;9.590;2024-03-17T20:39:37;35.28;;;21.48;;
72949;SDS011;64868;45.710;9.590;2024-03-17T20:45:27;36.55;;;23.08;;
72949;SDS011;64868;45.710;9.590;2024-03-17T20:56:43;37.20;;;23.90;;
72949;SDS011;64868;45.710;9.590;2024-03-17T21:11:23;31.80;;;20.98;;
72949;SDS011;64868;45.710;9.590;2024-03-17T21:13:49;32.85;;;21.58;;
72949;SDS011;64868;45.710;9.590;2024-03-17T21:16:29;32.72;;;21.20;;
72949;SDS011;64868;45.710;9.590;2024-03-17T21:18:55;38.15;;;22.63;;
72949;SDS011;64868;45.710;9.590;2024-03-17T21:21:27;41.38;;;24.58;;
72949;SDS011;64868;45.710;9.590;2024-03-17T21:23:52;40.03;;;25.17;;
72949;SDS011;64868;45.710;9.590;2024-03-17T21:26:19;37.05;;;22.13;;
72949;SDS011;64868;45.710;9.590;2024-03-17T21:28:52;33.30;;;22.38;;
72949;SDS011;64868;45.710;9.590;2024-03-17T21:31:18;33.30;;;22.15;;
72949;SDS011;64868;45.710;9.590;2024-03-17T21:33:54;35.65;;;22.35;;
72949;SDS011;64868;45.710;9.590;2024-03-17T21:41:50;35.47;;;22.10;;
72949;SDS011;64868;45.710;9.590;2024-03-17T21:44:17;32.70;;;21.88;;
72949;SDS011;64868;45.710;9.590;2024-03-17T21:46:43;35.28;;;22.40;;
72949;SDS011;64868;45.710;9.590;2024-03-17T21:49:09;34.95;;;22.27;;
72949;SDS011;64868;45.710;9.590;2024-03-17T21:51:36;34.78;;;21.73;;
72949;SDS011;64868;45.710;9.590;2024-03-17T21:54:02;31.23;;;19.83;;
72949;SDS011;64868;45.710;9.590;2024-03-17T22:02:36;34.13;;;20.95;;
72949;SDS011;64868;45.710;9.590;2024-03-17T22:08:24;32.78;;;19.88;;
72949;SDS011;64868;45.710;9.590;2024-03-17T22:13:43;35.00;;;20.90;;
72949;SDS011;64868;45.710;9.590;2024-03-17T22:19:31;30.42;;;19.67;;
72949;SDS011;64868;45.710;9.590;2024-03-17T22:24:45;31.17;;;20.98;;
72949;SDS011;64868;45.710;9.590;2024-03-17T22:27:12;29.75;;;19.95;;
72949;SDS011;64868;45.710;9.590;2024-03-17T22:29:40;34.63;;;21.33;;
72949;SDS011;64868;45.710;9.590;2024-03-17T22:32:22;32.08;;;19.75;;
72949;SDS011;64868;45.710;9.590;2024-03-17T22:34:48;30.27;;;19.55;;
72949;SDS011;64868;45.710;9.590;2024-03-17T22:37:16;32.30;;;20.55;;
72949;SDS011;64868;45.710;9.590;2024-03-17T22:42:46;31.73;;;20.38;;
72949;SDS011;64868;45.710;9.590;2024-03-17T22:45:18;29.95;;;20.10;;
72949;SDS011;64868;45.710;9.590;2024-03-17T22:47:44;33.70;;;20.75;;
72949;SDS011;64868;45.710;9.590;2024-03-17T22:50:16;29.45;;;18.85;;
72949;SDS011;64868;45.710;9.590;2024-03-17T22:52:43;33.40;;;21.08;;
72949;SDS011;64868;45.710;9.590;2024-03-17T22:55:08;27.10;;;18.15;;
72949;SDS011;64868;45.710;9.590;2024-03-17T22:57:37;32.55;;;19.73;;
72949;SDS011;64868;45.710;9.590;2024-03-17T23:02:44;31.00;;;19.90;;
72949;SDS011;64868;45.710;9.590;2024-03-17T23:05:12;34.85;;;20.35;;
72949;SDS011;64868;45.710;9.590;2024-03-17T23:10:12;31.13;;;17.48;;